createdAt,value
2018-08-11T00:00:33.849Z,101272.57
2018-08-11T00:03:02.255Z,101273.09
2018-08-11T00:05:30.609Z,101270.49
2018-08-11T00:07:59.057Z,101271.70
2018-08-11T00:10:27.469Z,101268.00
2018-08-11T00:12:55.797Z,101262.14
2018-08-11T00:15:24.163Z,101269.08
2018-08-11T00:17:52.523Z,101260.85
2018-08-11T00:20:25.088Z,101254.38
2018-08-11T00:22:53.451Z,101255.20
2018-08-11T00:25:21.972Z,101254.52
2018-08-11T00:27:50.370Z,101255.00
2018-08-11T00:30:20.776Z,101256.33
2018-08-11T00:32:49.192Z,101252.97
2018-08-11T00:35:17.516Z,101250.59
2018-08-11T00:37:46.176Z,101250.73
2018-08-11T00:40:16.711Z,101260.90
2018-08-11T00:42:46.307Z,101257.53
2018-08-11T00:45:15.505Z,101260.38
2018-08-11T00:47:43.999Z,101257.53
2018-08-11T00:50:16.053Z,101256.63
2018-08-11T00:52:44.428Z,101262.41
2018-08-11T00:55:13.724Z,101269.21
2018-08-11T00:57:42.441Z,101265.84
2018-08-11T01:00:14.088Z,101272.52
2018-08-11T01:02:42.878Z,101272.58
2018-08-11T01:05:13.796Z,101267.75
2018-08-11T01:07:42.734Z,101268.44
2018-08-11T01:10:11.886Z,101277.19
2018-08-11T01:12:41.315Z,101290.20
2018-08-11T01:15:12.125Z,101302.75
2018-08-11T01:17:40.495Z,101315.16
2018-08-11T01:20:10.021Z,101312.26
2018-08-11T01:22:39.018Z,101320.73
2018-08-11T01:25:07.568Z,101322.70
2018-08-11T01:27:36.172Z,101333.33
2018-08-11T01:30:06.759Z,101349.36
2018-08-11T01:32:35.126Z,101356.11
2018-08-11T01:35:03.655Z,101361.98
2018-08-11T01:37:31.987Z,101364.16
2018-08-11T01:40:00.308Z,101364.77
2018-08-11T01:42:28.694Z,101366.02
2018-08-11T01:44:57.050Z,101366.56
2018-08-11T01:47:25.378Z,101378.53
2018-08-11T01:49:53.946Z,101384.59
2018-08-11T01:52:22.273Z,101391.33
2018-08-11T01:54:50.688Z,101403.13
2018-08-11T01:57:19.180Z,101394.10
2018-08-11T01:59:47.565Z,101385.39
2018-08-11T02:02:15.881Z,101376.09
2018-08-11T02:04:44.220Z,101368.27
2018-08-11T02:07:12.537Z,101371.84
2018-08-11T02:09:40.928Z,101380.55
2018-08-11T02:12:09.360Z,101385.91
2018-08-11T02:14:37.736Z,101376.44
2018-08-11T02:17:06.582Z,101365.83
2018-08-11T02:19:34.961Z,101378.69
2018-08-11T02:22:03.500Z,101376.72
2018-08-11T02:24:31.851Z,101372.41
2018-08-11T02:27:00.242Z,101362.25
2018-08-11T02:29:28.688Z,101370.25
2018-08-11T02:31:57.030Z,101363.16
2018-08-11T02:34:25.569Z,101372.64
2018-08-11T02:36:53.850Z,101368.68
2018-08-11T02:39:22.216Z,101354.91
2018-08-11T02:41:50.521Z,101332.33
2018-08-11T02:44:18.898Z,101348.95
2018-08-11T02:46:47.285Z,101366.06
2018-08-11T02:49:15.616Z,101374.39
2018-08-11T02:51:43.956Z,101385.03
2018-08-11T02:54:12.584Z,101379.36
2018-08-11T02:56:40.894Z,101378.72
2018-08-11T02:59:09.291Z,101365.95
2018-08-11T03:01:37.644Z,101366.49
2018-08-11T03:04:05.953Z,101370.97
2018-08-11T03:06:34.261Z,101373.65
2018-08-11T03:09:02.595Z,101384.78
2018-08-11T03:11:30.988Z,101388.09
2018-08-11T03:13:59.379Z,101396.61
2018-08-11T03:16:27.704Z,101400.94
2018-08-11T03:18:56.063Z,101407.42
2018-08-11T03:21:24.422Z,101397.95
2018-08-11T03:23:52.773Z,101398.59
2018-08-11T03:26:21.116Z,101401.11
2018-08-11T03:28:49.502Z,101403.42
2018-08-11T03:31:17.833Z,101408.91
2018-08-11T03:33:46.209Z,101410.88
2018-08-11T03:36:14.525Z,101414.72
2018-08-11T03:38:42.896Z,101412.55
2018-08-11T03:41:11.231Z,101412.55
2018-08-11T03:43:39.568Z,101417.86
2018-08-11T03:46:08.113Z,101416.04
2018-08-11T03:48:36.468Z,101416.22
2018-08-11T03:51:04.813Z,101413.39
2018-08-11T03:53:33.135Z,101406.92
2018-08-11T03:56:01.469Z,101399.92
2018-08-11T03:58:29.821Z,101399.61
2018-08-11T04:00:58.160Z,101402.91
2018-08-11T04:03:26.513Z,101408.41
2018-08-11T04:05:54.841Z,101411.57
2018-08-11T04:08:23.211Z,101412.39
2018-08-11T04:10:51.560Z,101418.72
2018-08-11T04:13:19.933Z,101430.81
2018-08-11T04:15:48.233Z,101439.61
2018-08-11T04:18:16.556Z,101445.78
2018-08-11T04:20:44.876Z,101433.98
2018-08-11T04:23:13.226Z,101447.77
2018-08-11T04:25:41.582Z,101439.14
2018-08-11T04:28:10.113Z,101437.13
2018-08-11T04:30:38.459Z,101437.45
2018-08-11T04:33:06.828Z,101431.81
2018-08-11T04:35:35.207Z,101431.81
2018-08-11T04:38:03.570Z,101431.66
2018-08-11T04:40:31.948Z,101432.63
2018-08-11T04:43:00.343Z,101428.94
2018-08-11T04:45:28.698Z,101430.08
2018-08-11T04:47:57.010Z,101434.32
2018-08-11T04:50:25.341Z,101447.52
2018-08-11T04:52:53.740Z,101438.07
2018-08-11T04:55:22.119Z,101437.39
2018-08-11T04:57:50.553Z,101438.80
2018-08-11T05:00:18.937Z,101448.13
2018-08-11T05:02:47.273Z,101450.16
2018-08-11T05:05:15.620Z,101456.45
2018-08-11T05:07:43.936Z,101457.28
2018-08-11T05:10:12.253Z,101460.14
2018-08-11T05:12:40.592Z,101465.07
2018-08-11T05:15:09.361Z,101466.52
2018-08-11T05:17:37.704Z,101469.05
2018-08-11T05:20:06.060Z,101468.59
2018-08-11T05:22:34.437Z,101472.70
2018-08-11T05:25:02.804Z,101482.80
2018-08-11T05:27:31.155Z,101476.48
2018-08-11T05:29:59.532Z,101476.93
2018-08-11T05:32:27.844Z,101482.69
2018-08-11T05:34:56.227Z,101478.42
2018-08-11T05:37:24.563Z,101479.80
2018-08-11T05:39:52.921Z,101483.31
2018-08-11T05:42:21.270Z,101494.45
2018-08-11T05:44:49.634Z,101490.47
2018-08-11T05:47:17.974Z,101493.12
2018-08-11T05:49:46.301Z,101493.95
2018-08-11T05:52:14.780Z,101499.39
2018-08-11T05:54:43.092Z,101501.50
2018-08-11T05:57:11.428Z,101497.01
2018-08-11T05:59:39.767Z,101496.20
2018-08-11T06:02:08.256Z,101502.69
2018-08-11T06:04:36.625Z,101508.72
2018-08-11T06:07:05.171Z,101503.76
2018-08-11T06:09:33.531Z,101502.94
2018-08-11T06:12:01.961Z,101508.77
2018-08-11T06:14:30.357Z,101509.75
2018-08-11T06:16:58.731Z,101518.70
2018-08-11T06:19:27.110Z,101523.36
2018-08-11T06:21:55.714Z,101523.02
2018-08-11T06:24:24.170Z,101526.48
2018-08-11T06:26:52.523Z,101526.62
2018-08-11T06:29:20.884Z,101528.81
2018-08-11T06:31:49.304Z,101526.03
2018-08-11T06:34:17.621Z,101536.83
2018-08-11T06:36:45.991Z,101534.84
2018-08-11T06:39:15.273Z,101527.70
2018-08-11T06:41:44.109Z,101528.16
2018-08-11T06:44:13.034Z,101531.77
2018-08-11T06:46:41.410Z,101536.84
2018-08-11T06:49:09.772Z,101542.61
2018-08-11T06:51:38.373Z,101547.59
2018-08-11T06:54:06.763Z,101549.83
2018-08-11T06:56:35.207Z,101551.51
2018-08-11T06:59:03.607Z,101549.56
2018-08-11T07:03:56.879Z,101559.44
2018-08-11T07:06:25.220Z,101558.47
2018-08-11T07:08:53.624Z,101562.78
2018-08-11T07:11:21.924Z,101560.62
2018-08-11T07:13:50.270Z,101551.59
2018-08-11T07:16:18.629Z,101558.80
2018-08-11T07:18:46.975Z,101564.59
2018-08-11T07:21:15.488Z,101563.94
2018-08-11T07:23:43.736Z,101570.70
2018-08-11T07:26:12.156Z,101568.95
2018-08-11T07:28:40.873Z,101569.67
2018-08-11T07:31:09.229Z,101573.90
2018-08-11T07:33:37.557Z,101572.53
2018-08-11T07:36:06.057Z,101576.90
2018-08-11T07:38:34.333Z,101584.84
2018-08-11T07:41:02.663Z,101581.03
2018-08-11T07:43:30.997Z,101581.28
2018-08-11T07:45:59.347Z,101583.21
2018-08-11T07:48:27.684Z,101582.98
2018-08-11T07:50:56.296Z,101584.97
2018-08-11T07:53:24.657Z,101580.72
2018-08-11T07:55:53.035Z,101589.30
2018-08-11T07:58:21.556Z,101587.70
2018-08-11T08:00:49.910Z,101587.94
2018-08-11T08:03:18.222Z,101585.42
2018-08-11T08:05:46.566Z,101591.39
2018-08-11T08:08:14.905Z,101590.20
2018-08-11T08:10:43.259Z,101591.70
2018-08-11T08:13:11.617Z,101597.96
2018-08-11T08:15:39.980Z,101592.02
2018-08-11T08:18:08.304Z,101598.48
2018-08-11T08:20:36.703Z,101599.33
2018-08-11T08:23:05.058Z,101594.08
2018-08-11T08:25:33.424Z,101597.20
2018-08-11T08:28:01.850Z,101599.34
2018-08-11T08:30:30.200Z,101597.77
2018-08-11T08:32:58.575Z,101600.98
2018-08-11T08:35:26.925Z,101596.44
2018-08-11T08:37:55.261Z,101596.52
2018-08-11T08:40:23.643Z,101588.14
2018-08-11T08:42:51.975Z,101596.44
2018-08-11T08:45:20.392Z,101594.61
2018-08-11T08:47:48.771Z,101594.11
2018-08-11T08:50:17.118Z,101595.27
2018-08-11T08:52:45.446Z,101597.73
2018-08-11T08:55:13.780Z,101594.11
2018-08-11T08:57:42.120Z,101600.86
2018-08-11T09:00:10.428Z,101601.81
2018-08-11T09:02:38.781Z,101597.11
2018-08-11T09:05:07.144Z,101593.64
2018-08-11T09:07:35.562Z,101603.45
2018-08-11T09:10:03.955Z,101595.12
2018-08-11T09:12:32.288Z,101599.64
2018-08-11T09:15:00.659Z,101600.43
2018-08-11T09:17:29.041Z,101599.11
2018-08-11T09:19:57.409Z,101599.17
2018-08-11T09:22:25.749Z,101605.91
2018-08-11T09:24:54.097Z,101610.90
2018-08-11T09:27:22.445Z,101611.80
2018-08-11T09:29:50.749Z,101616.07
2018-08-11T09:32:19.104Z,101604.11
2018-08-11T09:34:47.414Z,101604.52
2018-08-11T09:37:15.763Z,101604.99
2018-08-11T09:39:44.070Z,101599.56
2018-08-11T09:42:12.607Z,101606.04
2018-08-11T09:44:40.914Z,101606.57
2018-08-11T09:47:09.252Z,101610.77
2018-08-11T09:49:37.684Z,101596.98
2018-08-11T09:52:06.032Z,101598.23
2018-08-11T09:54:34.338Z,101600.86
2018-08-11T09:57:02.716Z,101600.91
2018-08-11T09:59:31.053Z,101597.91
2018-08-11T10:02:04.656Z,101598.01
2018-08-11T10:04:33.166Z,101597.72
2018-08-11T10:07:01.578Z,101600.95
2018-08-11T10:09:29.988Z,101604.53
2018-08-11T10:11:58.330Z,101602.98
2018-08-11T10:14:26.920Z,101604.84
2018-08-11T10:16:55.257Z,101601.17
2018-08-11T10:19:23.615Z,101596.88
2018-08-11T10:21:51.950Z,101592.34
2018-08-11T10:24:20.504Z,101586.78
2018-08-11T10:26:48.823Z,101594.38
2018-08-11T10:29:17.187Z,101590.67
2018-08-11T10:31:45.542Z,101597.10
2018-08-11T10:34:13.899Z,101592.34
2018-08-11T10:36:42.276Z,101595.09
2018-08-11T10:39:12.334Z,101592.44
2018-08-11T10:41:41.025Z,101585.59
2018-08-11T10:44:10.244Z,101592.87
2018-08-11T10:46:38.851Z,101583.39
2018-08-11T10:49:07.428Z,101586.12
2018-08-11T10:51:36.221Z,101593.95
2018-08-11T10:54:04.544Z,101589.64
2018-08-11T10:56:33.132Z,101591.52
2018-08-11T10:59:01.460Z,101588.17
2018-08-11T11:01:29.824Z,101601.14
2018-08-11T11:03:58.145Z,101593.16
2018-08-11T11:06:26.493Z,101598.09
2018-08-11T11:08:54.784Z,101595.16
2018-08-11T11:11:23.147Z,101590.20
2018-08-11T11:13:51.512Z,101591.40
2018-08-11T11:16:19.882Z,101584.77
2018-08-11T11:18:48.267Z,101588.05
2018-08-11T11:21:16.615Z,101578.61
2018-08-11T11:23:44.956Z,101578.15
2018-08-11T11:26:13.291Z,101582.29
2018-08-11T11:28:41.657Z,101583.11
2018-08-11T11:31:10.012Z,101589.94
2018-08-11T11:33:38.337Z,101588.73
2018-08-11T11:36:06.685Z,101582.23
2018-08-11T11:38:35.044Z,101584.52
2018-08-11T11:41:03.411Z,101583.28
2018-08-11T11:43:31.771Z,101582.86
2018-08-11T11:46:00.134Z,101574.58
2018-08-11T11:48:28.476Z,101579.11
2018-08-11T11:50:56.840Z,101581.09
2018-08-11T11:53:25.169Z,101577.21
2018-08-11T11:55:53.696Z,101588.05
2018-08-11T11:58:22.055Z,101580.08
2018-08-11T12:00:50.369Z,101577.61
2018-08-11T12:03:18.710Z,101574.33
2018-08-11T12:05:47.042Z,101563.53
2018-08-11T12:08:15.387Z,101568.71
2018-08-11T12:10:43.685Z,101566.95
2018-08-11T12:13:12.001Z,101564.14
2018-08-11T12:15:40.351Z,101569.88
2018-08-11T12:18:08.673Z,101574.97
2018-08-11T12:20:37.093Z,101577.53
2018-08-11T12:23:05.510Z,101573.35
2018-08-11T12:25:33.839Z,101570.25
2018-08-11T12:28:02.175Z,101576.33
2018-08-11T12:30:30.496Z,101571.15
2018-08-11T12:32:58.842Z,101566.36
2018-08-11T12:35:27.150Z,101562.53
2018-08-11T12:37:55.476Z,101562.50
2018-08-11T12:40:23.801Z,101567.97
2018-08-11T12:42:52.167Z,101561.69
2018-08-11T12:45:20.552Z,101560.57
2018-08-11T12:47:48.906Z,101561.09
2018-08-11T12:50:17.273Z,101570.09
2018-08-11T12:52:45.602Z,101567.09
2018-08-11T12:55:13.943Z,101564.70
2018-08-11T12:57:42.281Z,101570.83
2018-08-11T13:00:10.993Z,101559.98
2018-08-11T13:02:39.442Z,101571.43
2018-08-11T13:05:07.852Z,101562.14
2018-08-11T13:07:36.217Z,101562.63
2018-08-11T13:10:05.265Z,101571.00
2018-08-11T13:12:33.626Z,101561.40
2018-08-11T13:15:01.959Z,101572.69
2018-08-11T13:17:30.264Z,101564.38
2018-08-11T13:19:58.596Z,101571.09
2018-08-11T13:22:26.916Z,101563.95
2018-08-11T13:24:55.243Z,101564.70
2018-08-11T13:27:23.655Z,101559.64
2018-08-11T13:29:51.940Z,101556.17
2018-08-11T13:32:20.300Z,101558.01
2018-08-11T13:34:48.602Z,101552.04
2018-08-11T13:37:16.932Z,101550.70
2018-08-11T13:39:50.374Z,101541.89
2018-08-11T13:42:19.227Z,101541.47
2018-08-11T13:44:47.566Z,101543.33
2018-08-11T13:47:15.973Z,101535.39
2018-08-11T13:49:44.504Z,101535.27
2018-08-11T13:52:12.878Z,101537.65
2018-08-11T13:54:41.407Z,101538.19
2018-08-11T13:57:09.757Z,101534.48
2018-08-11T13:59:38.185Z,101538.07
2018-08-11T14:02:06.677Z,101535.39
2018-08-11T14:04:35.339Z,101537.55
2018-08-11T14:07:03.784Z,101544.92
2018-08-11T14:09:32.319Z,101537.04
2018-08-11T14:12:00.652Z,101533.68
2018-08-11T14:14:29.083Z,101535.73
2018-08-11T14:16:57.420Z,101532.77
2018-08-11T14:19:25.730Z,101525.83
2018-08-11T14:21:54.081Z,101523.75
2018-08-11T14:24:22.443Z,101534.80
2018-08-11T14:26:50.775Z,101535.75
2018-08-11T14:29:19.124Z,101539.05
2018-08-11T14:31:47.442Z,101542.91
2018-08-11T14:34:15.829Z,101537.97
2018-08-11T14:36:44.173Z,101535.41
2018-08-11T14:39:12.547Z,101536.53
2018-08-11T14:41:40.867Z,101536.23
2018-08-11T14:44:09.440Z,101545.94
2018-08-11T14:46:37.792Z,101538.10
2018-08-11T14:49:06.699Z,101526.13
2018-08-11T14:51:35.383Z,101533.35
2018-08-11T14:54:03.880Z,101524.85
2018-08-11T14:56:32.181Z,101535.19
2018-08-11T14:59:00.625Z,101535.28
2018-08-11T15:01:28.940Z,101537.53
2018-08-11T15:03:57.315Z,101533.58
2018-08-11T15:06:25.657Z,101531.27
2018-08-11T15:08:54.232Z,101544.80
2018-08-11T15:11:22.558Z,101540.91
2018-08-11T15:13:50.893Z,101536.08
2018-08-11T15:16:19.256Z,101538.17
2018-08-11T15:18:47.615Z,101535.91
2018-08-11T15:21:15.996Z,101537.03
2018-08-11T15:23:44.310Z,101540.77
2018-08-11T15:26:12.697Z,101545.83
2018-08-11T15:28:41.074Z,101538.80
2018-08-11T15:31:09.395Z,101533.84
2018-08-11T15:33:37.783Z,101530.75
2018-08-11T15:36:06.115Z,101530.97
2018-08-11T15:38:34.425Z,101531.08
2018-08-11T15:41:02.750Z,101536.05
2018-08-11T15:43:31.095Z,101532.73
2018-08-11T15:45:59.448Z,101538.63
2018-08-11T15:48:27.826Z,101539.44
2018-08-11T15:50:56.253Z,101541.09
2018-08-11T15:53:24.617Z,101545.11
2018-08-11T15:55:53.240Z,101538.63
2018-08-11T15:58:21.590Z,101536.64
2018-08-11T16:00:49.913Z,101536.53
2018-08-11T16:03:18.279Z,101535.20
2018-08-11T16:05:46.644Z,101531.91
2018-08-11T16:08:15.107Z,101529.31
2018-08-11T16:10:43.730Z,101533.41
2018-08-11T16:13:12.056Z,101531.77
2018-08-11T16:15:40.401Z,101538.07
2018-08-11T16:18:08.738Z,101535.69
2018-08-11T16:20:37.143Z,101538.33
2018-08-11T16:23:05.455Z,101535.13
2018-08-11T16:25:33.841Z,101542.23
2018-08-11T16:28:02.176Z,101544.48
2018-08-11T16:30:30.496Z,101546.56
2018-08-11T16:32:58.801Z,101535.20
2018-08-11T16:35:27.124Z,101528.30
2018-08-11T16:37:55.436Z,101536.02
2018-08-11T16:40:23.786Z,101533.86
2018-08-11T16:42:52.097Z,101531.36
2018-08-11T16:45:20.458Z,101528.27
2018-08-11T16:47:48.798Z,101529.41
2018-08-11T16:50:17.126Z,101527.63
2018-08-11T16:52:45.441Z,101530.53
2018-08-11T16:55:13.822Z,101528.89
2018-08-11T16:57:42.172Z,101531.23
2018-08-11T17:00:12.300Z,101534.36
2018-08-11T17:02:40.949Z,101542.70
2018-08-11T17:05:09.277Z,101536.19
2018-08-11T17:07:37.596Z,101539.20
2018-08-11T17:10:07.422Z,101535.06
2018-08-11T17:12:36.026Z,101529.07
2018-08-11T17:15:04.448Z,101526.38
2018-08-11T17:17:32.813Z,101528.05
2018-08-11T17:20:01.183Z,101526.69
2018-08-11T17:22:29.735Z,101529.44
2018-08-11T17:24:58.057Z,101528.53
2018-08-11T17:27:26.406Z,101528.94
2018-08-11T17:29:54.753Z,101535.10
2018-08-11T17:32:23.114Z,101521.16
2018-08-11T17:34:51.465Z,101517.94
2018-08-11T17:37:19.990Z,101511.19
2018-08-11T17:39:48.366Z,101517.16
2018-08-11T17:42:16.679Z,101516.31
2018-08-11T17:44:44.980Z,101514.03
2018-08-11T17:47:13.368Z,101512.45
2018-08-11T17:49:41.750Z,101511.21
2018-08-11T17:52:10.076Z,101518.70
2018-08-11T17:54:38.393Z,101522.63
2018-08-11T17:57:06.908Z,101517.45
2018-08-11T17:59:35.213Z,101515.80
2018-08-11T18:02:03.586Z,101519.30
2018-08-11T18:04:31.905Z,101516.33
2018-08-11T18:07:00.316Z,101513.83
2018-08-11T18:09:28.624Z,101514.73
2018-08-11T18:11:56.956Z,101509.08
2018-08-11T18:14:25.304Z,101515.95
2018-08-11T18:16:53.684Z,101513.49
2018-08-11T18:19:22.009Z,101517.38
2018-08-11T18:21:50.891Z,101508.31
2018-08-11T18:24:19.283Z,101512.59
2018-08-11T18:26:47.638Z,101512.86
2018-08-11T18:29:16.071Z,101520.77
2018-08-11T18:31:44.387Z,101522.41
2018-08-11T18:34:12.767Z,101515.58
2018-08-11T18:36:41.072Z,101516.33
2018-08-11T18:39:11.488Z,101518.78
2018-08-11T18:41:39.923Z,101516.16
2018-08-11T18:44:08.245Z,101518.91
2018-08-11T18:46:36.787Z,101517.86
2018-08-11T18:49:05.233Z,101525.11
2018-08-11T18:51:33.628Z,101519.20
2018-08-11T18:54:02.167Z,101518.97
2018-08-11T18:56:30.606Z,101521.37
2018-08-11T18:58:58.954Z,101521.02
2018-08-11T19:01:27.366Z,101530.83
2018-08-11T19:03:55.702Z,101530.77
2018-08-11T19:06:24.033Z,101530.91
2018-08-11T19:08:52.456Z,101528.85
2018-08-11T19:11:20.937Z,101536.46
2018-08-11T19:13:49.310Z,101532.75
2018-08-11T19:16:17.658Z,101539.05
2018-08-11T19:18:46.025Z,101537.64
2018-08-11T19:21:14.360Z,101534.69
2018-08-11T19:23:42.720Z,101540.46
2018-08-11T19:26:11.108Z,101547.73
2018-08-11T19:28:39.455Z,101541.32
2018-08-11T19:31:07.832Z,101551.72
2018-08-11T19:33:36.338Z,101538.79
2018-08-11T19:36:04.683Z,101548.36
2018-08-11T19:38:32.995Z,101542.30
2018-08-11T19:41:01.342Z,101541.44
2018-08-11T19:43:29.676Z,101545.79
2018-08-11T19:45:58.042Z,101546.40
2018-08-11T19:48:26.352Z,101537.01
2018-08-11T19:50:54.689Z,101538.91
2018-08-11T19:53:23.037Z,101531.00
2018-08-11T19:55:51.422Z,101530.23
2018-08-11T19:58:19.844Z,101534.31
2018-08-11T20:00:48.209Z,101538.67
2018-08-11T20:03:16.784Z,101535.70
2018-08-11T20:05:45.134Z,101535.42
2018-08-11T20:08:13.579Z,101536.64
2018-08-11T20:10:41.893Z,101542.48
2018-08-11T20:13:10.244Z,101536.05
2018-08-11T20:15:38.631Z,101540.24
2018-08-11T20:18:06.950Z,101539.07
2018-08-11T20:20:35.335Z,101536.13
2018-08-11T20:23:03.702Z,101534.83
2018-08-11T20:25:32.208Z,101534.19
2018-08-11T20:28:00.469Z,101534.57
2018-08-11T20:30:28.806Z,101534.76
2018-08-11T20:32:57.217Z,101532.13
2018-08-11T20:35:25.609Z,101533.99
2018-08-11T20:37:54.026Z,101534.81
2018-08-11T20:40:22.362Z,101533.38
2018-08-11T20:42:50.685Z,101526.39
2018-08-11T20:45:19.087Z,101534.75
2018-08-11T20:47:47.461Z,101535.76
2018-08-11T20:50:15.820Z,101531.78
2018-08-11T20:52:44.264Z,101528.48
2018-08-11T20:55:12.677Z,101529.83
2018-08-11T20:57:41.029Z,101531.50
2018-08-11T21:00:11.486Z,101531.20
2018-08-11T21:02:39.907Z,101523.72
2018-08-11T21:05:12.038Z,101525.25
2018-08-11T21:07:40.691Z,101523.88
2018-08-11T21:10:11.969Z,101523.25
2018-08-11T21:12:40.731Z,101520.25
2018-08-11T21:15:09.925Z,101518.94
2018-08-11T21:17:38.625Z,101518.13
2018-08-11T21:20:08.762Z,101516.78
2018-08-11T21:22:37.231Z,101516.64
2018-08-11T21:25:06.680Z,101514.98
2018-08-11T21:27:35.225Z,101512.48
2018-08-11T21:30:03.700Z,101519.32
2018-08-11T21:32:32.041Z,101525.12
2018-08-11T21:35:00.459Z,101519.81
2018-08-11T21:37:28.857Z,101521.98
2018-08-11T21:39:57.245Z,101517.83
2018-08-11T21:42:25.634Z,101513.34
2018-08-11T21:44:53.997Z,101521.50
2018-08-11T21:47:22.351Z,101519.66
2018-08-11T21:49:50.819Z,101518.48
2018-08-11T21:52:19.183Z,101517.16
2018-08-11T21:54:47.631Z,101514.50
2018-08-11T21:57:15.968Z,101513.50
2018-08-11T21:59:44.453Z,101509.52
2018-08-11T22:02:12.824Z,101514.00
2018-08-11T22:04:41.088Z,101508.69
2018-08-11T22:07:09.430Z,101512.03
2018-08-11T22:09:37.882Z,101515.84
2018-08-11T22:12:06.262Z,101505.05
2018-08-11T22:14:34.685Z,101506.70
2018-08-11T22:17:03.000Z,101514.00
2018-08-11T22:19:31.309Z,101510.52
2018-08-11T22:21:59.670Z,101508.00
2018-08-11T22:24:28.063Z,101506.86
2018-08-11T22:26:56.743Z,101501.72
2018-08-11T22:29:25.304Z,101506.86
2018-08-11T22:31:53.676Z,101504.02
2018-08-11T22:34:22.077Z,101507.53
2018-08-11T22:36:50.398Z,101504.37
2018-08-11T22:39:18.765Z,101505.85
2018-08-11T22:41:47.099Z,101504.20
2018-08-11T22:44:15.452Z,101496.88
2018-08-11T22:46:43.846Z,101496.85
2018-08-11T22:49:12.186Z,101499.01
2018-08-11T22:51:40.561Z,101501.34
2018-08-11T22:54:09.022Z,101501.34
2018-08-11T22:56:37.359Z,101493.70
2018-08-11T22:59:05.776Z,101490.36
2018-08-11T23:01:34.140Z,101495.35
2018-08-11T23:04:02.509Z,101486.05
2018-08-11T23:06:30.899Z,101478.77
2018-08-11T23:08:59.258Z,101480.74
2018-08-11T23:11:27.591Z,101472.78
2018-08-11T23:13:55.996Z,101471.27
2018-08-11T23:16:24.319Z,101474.44
2018-08-11T23:18:53.042Z,101470.27
2018-08-11T23:21:21.550Z,101470.92
2018-08-11T23:23:49.971Z,101466.94
2018-08-11T23:26:18.454Z,101471.88
2018-08-11T23:28:46.793Z,101464.24
2018-08-11T23:31:15.195Z,101457.78
2018-08-11T23:33:43.531Z,101452.66
2018-08-11T23:36:11.912Z,101459.29
2018-08-11T23:38:40.267Z,101453.13
2018-08-11T23:41:08.588Z,101452.30
2018-08-11T23:43:36.963Z,101451.94
2018-08-11T23:46:05.500Z,101449.64
2018-08-11T23:48:33.830Z,101448.49
2018-08-11T23:51:02.236Z,101445.48
2018-08-11T23:53:30.589Z,101440.67
2018-08-11T23:55:58.890Z,101438.84
2018-08-11T23:58:27.296Z,101442.18
